Time;durP1;ratioP1;P1;durP2;ratioP2;P2;SDS_P1;SDS_P2;PMS_P1;PMS_P2;Temp;Humidity;BMP_temperature;BMP_pressure;BME280_temperature;BME280_humidity;BME280_pressure;Samples;Min_cycle;Max_cycle;Signal;HPM_P1;HPM_P2
2023/12/28 00:00:23;;;;;;;1.60;1.10;;;10.50;98.20;;;;;;6119475;23;20453;-78
2023/12/28 00:02:51;;;;;;;1.60;1.10;;;10.50;98.20;;;;;;6105980;23;20568;-78
2023/12/28 00:05:18;;;;;;;1.60;1.10;;;10.50;98.20;;;;;;6120105;23;21318;-78
2023/12/28 00:07:45;;;;;;;1.60;1.20;;;10.50;98.20;;;;;;6106812;23;20513;-78
2023/12/28 00:10:12;;;;;;;1.60;1.10;;;10.50;98.20;;;;;;6119747;23;20424;-78
2023/12/28 00:12:39;;;;;;;1.60;1.10;;;10.50;98.20;;;;;;6103813;23;20449;-78
2023/12/28 00:15:09;;;;;;;1.60;1.10;;;10.50;98.20;;;;;;6118679;23;20457;-78
2023/12/28 00:17:35;;;;;;;1.57;1.10;;;10.50;98.20;;;;;;6103799;23;20972;-77
2023/12/28 00:20:04;;;;;;;1.60;1.20;;;10.50;98.20;;;;;;6118572;23;20417;-78
2023/12/28 00:22:32;;;;;;;1.60;1.10;;;10.50;98.20;;;;;;6103864;23;20537;-79
2023/12/28 00:24:58;;;;;;;1.60;1.10;;;10.50;98.20;;;;;;6119374;23;20441;-78
2023/12/28 00:27:26;;;;;;;1.60;1.10;;;10.50;98.20;;;;;;6105726;23;20454;-79
2023/12/28 00:29:52;;;;;;;1.60;1.10;;;10.50;98.20;;;;;;6119405;23;20509;-78
2023/12/28 00:32:19;;;;;;;1.60;1.00;;;10.50;98.20;;;;;;6104196;23;20453;-78
2023/12/28 00:34:46;;;;;;;1.60;1.10;;;10.50;98.20;;;;;;6120882;23;20537;-79
2023/12/28 00:37:14;;;;;;;1.60;1.10;;;10.40;98.20;;;;;;6105177;23;20532;-78
2023/12/28 00:39:41;;;;;;;1.60;1.20;;;10.40;98.20;;;;;;6120711;23;20433;-77
2023/12/28 00:42:08;;;;;;;1.60;1.10;;;10.40;98.20;;;;;;6104801;23;20501;-78
2023/12/28 00:44:35;;;;;;;1.60;1.10;;;10.40;98.20;;;;;;6118822;23;20538;-77
2023/12/28 00:47:02;;;;;;;1.60;1.10;;;10.40;98.20;;;;;;6104296;23;20524;-78
2023/12/28 00:49:29;;;;;;;1.60;1.20;;;10.40;98.20;;;;;;6119436;23;20448;-78
2023/12/28 00:51:55;;;;;;;1.60;1.10;;;10.40;98.20;;;;;;6103351;23;20456;-79
2023/12/28 00:54:24;;;;;;;1.53;1.10;;;10.40;98.20;;;;;;6119248;23;20449;-77
2023/12/28 00:56:51;;;;;;;1.60;1.10;;;10.40;98.20;;;;;;6103906;23;20488;-78
2023/12/28 00:59:18;;;;;;;1.57;1.10;;;10.40;98.20;;;;;;6128740;23;20739;-78
2023/12/28 01:01:47;;;;;;;1.60;1.10;;;10.40;98.20;;;;;;6103981;23;20453;-77
2023/12/28 01:04:14;;;;;;;1.60;1.10;;;10.40;98.20;;;;;;6120285;23;20441;-78
2023/12/28 01:06:40;;;;;;;1.60;1.10;;;10.40;98.20;;;;;;6106712;23;21000;-78
2023/12/28 01:09:08;;;;;;;1.57;1.10;;;10.40;98.20;;;;;;6121517;23;20480;-78
2023/12/28 01:11:36;;;;;;;1.57;1.10;;;10.40;98.20;;;;;;6114097;23;20453;-79
2023/12/28 01:14:03;;;;;;;1.60;1.10;;;10.40;98.20;;;;;;6121436;23;20836;-78
2023/12/28 01:16:29;;;;;;;1.57;1.10;;;10.40;98.20;;;;;;6108211;23;20477;-78
2023/12/28 01:18:56;;;;;;;1.57;1.10;;;10.40;98.20;;;;;;6122451;23;20432;-77
2023/12/28 01:21:24;;;;;;;1.60;1.10;;;10.40;98.20;;;;;;6115248;23;20962;-78
2023/12/28 01:23:51;;;;;;;1.60;1.10;;;10.40;98.20;;;;;;6121521;23;20456;-79
2023/12/28 01:26:18;;;;;;;1.60;1.10;;;10.40;98.20;;;;;;6107228;23;20471;-78
2023/12/28 01:28:46;;;;;;;1.60;1.00;;;10.40;98.20;;;;;;6122049;23;20974;-78
2023/12/28 01:31:13;;;;;;;1.60;1.10;;;10.40;98.20;;;;;;6107118;23;20449;-79
2023/12/28 01:33:40;;;;;;;1.53;1.10;;;10.40;98.20;;;;;;6121055;23;20457;-78
2023/12/28 01:36:17;;;;;;;1.57;1.10;;;10.40;98.20;;;;;;6106576;23;20529;-78
2023/12/28 01:38:44;;;;;;;1.60;1.20;;;10.40;98.20;;;;;;6120510;23;20456;-77
2023/12/28 01:41:12;;;;;;;1.57;1.10;;;10.40;98.20;;;;;;6106451;23;20528;-77
2023/12/28 01:43:39;;;;;;;1.60;1.10;;;10.40;98.20;;;;;;6130458;23;20424;-78
2023/12/28 01:46:08;;;;;;;1.60;1.10;;;10.40;98.20;;;;;;6106157;23;20524;-78
2023/12/28 01:48:35;;;;;;;1.60;1.10;;;10.40;98.20;;;;;;6122158;23;20500;-78
2023/12/28 01:51:03;;;;;;;1.60;1.10;;;10.50;98.20;;;;;;6107046;23;20561;-78
2023/12/28 01:53:31;;;;;;;1.57;1.10;;;10.50;98.20;;;;;;6120700;23;20453;-77
2023/12/28 01:55:58;;;;;;;1.57;1.00;;;10.50;98.20;;;;;;6106949;23;20994;-77
2023/12/28 01:58:25;;;;;;;1.60;1.10;;;10.50;98.20;;;;;;6121695;23;20431;-77
2023/12/28 02:00:52;;;;;;;1.60;1.10;;;10.50;98.20;;;;;;6108526;23;20497;-77
2023/12/28 02:03:20;;;;;;;1.60;1.10;;;10.50;98.20;;;;;;6121449;23;20422;-77
2023/12/28 02:05:47;;;;;;;1.60;1.10;;;10.50;98.20;;;;;;6119163;23;20450;-77
2023/12/28 02:08:14;;;;;;;2.73;2.50;;;10.50;98.20;;;;;;6120198;23;20434;-78
2023/12/28 02:10:41;;;;;;;1.60;1.10;;;10.50;98.20;;;;;;6124532;23;20417;-78
2023/12/28 02:13:09;;;;;;;1.57;1.10;;;10.50;98.20;;;;;;6108246;23;20685;-78
2023/12/28 02:15:38;;;;;;;1.53;1.10;;;10.50;98.20;;;;;;6126279;23;21143;-81
2023/12/28 02:18:12;;;;;;;1.57;1.10;;;10.50;98.20;;;;;;6106765;23;20455;-82
2023/12/28 02:20:42;;;;;;;1.60;1.10;;;10.60;98.20;;;;;;6129723;23;20836;-81
2023/12/28 02:23:09;;;;;;;1.60;1.13;;;10.50;98.20;;;;;;6107574;23;20456;-81
2023/12/28 02:25:38;;;;;;;1.60;1.10;;;10.60;98.20;;;;;;6135992;23;20421;-80
2023/12/28 02:28:06;;;;;;;1.57;1.10;;;10.50;98.20;;;;;;6123021;23;20445;-80
2023/12/28 02:30:33;;;;;;;1.60;1.10;;;10.60;98.20;;;;;;6140085;23;20441;-81
2023/12/28 02:33:11;;;;;;;1.50;1.10;;;10.60;98.20;;;;;;6107303;23;20833;-81
2023/12/28 02:35:43;;;;;;;1.57;1.03;;;10.60;98.20;;;;;;6132781;23;20480;-80
2023/12/28 02:38:12;;;;;;;1.60;1.10;;;10.50;98.20;;;;;;6108663;23;20497;-81
2023/12/28 02:40:43;;;;;;;1.60;1.10;;;10.50;98.20;;;;;;6125844;23;20678;-81
2023/12/28 02:43:11;;;;;;;1.60;1.20;;;10.60;98.20;;;;;;6107652;23;20961;-81
2023/12/28 02:45:39;;;;;;;1.60;1.20;;;10.50;98.20;;;;;;6133925;23;20437;-81
2023/12/28 02:48:07;;;;;;;1.70;1.30;;;10.50;98.20;;;;;;6109399;23;20512;-81
2023/12/28 02:50:34;;;;;;;1.60;1.10;;;10.50;98.20;;;;;;6124945;23;20505;-81
2023/12/28 02:53:02;;;;;;;1.60;1.13;;;10.50;98.20;;;;;;6108094;23;20450;-81
2023/12/28 02:55:28;;;;;;;1.57;1.10;;;10.50;98.20;;;;;;6133224;23;20452;-81
2023/12/28 02:58:00;;;;;;;1.50;1.10;;;10.50;98.20;;;;;;6107506;23;20454;-81
2023/12/28 03:00:31;;;;;;;1.60;1.20;;;10.50;98.20;;;;;;6133591;23;20753;-82
2023/12/28 03:02:58;;;;;;;1.60;1.20;;;10.50;98.20;;;;;;6107862;23;20445;-81
2023/12/28 03:05:24;;;;;;;1.60;1.10;;;10.50;98.20;;;;;;6133147;23;20448;-80
2023/12/28 03:07:51;;;;;;;1.60;1.20;;;10.50;98.20;;;;;;6108832;23;20527;-81
2023/12/28 03:10:18;;;;;;;1.60;1.03;;;10.50;98.20;;;;;;6124704;23;20450;-81
2023/12/28 03:12:45;;;;;;;1.60;1.10;;;10.50;98.20;;;;;;6107362;23;20876;-81
2023/12/28 03:15:14;;;;;;;1.60;1.10;;;10.50;98.20;;;;;;6132456;23;20565;-81
2023/12/28 03:17:45;;;;;;;1.60;1.10;;;10.50;98.20;;;;;;6107426;23;20990;-80
2023/12/28 03:20:12;;;;;;;1.60;1.00;;;10.50;98.20;;;;;;6122844;23;20848;-81
2023/12/28 03:22:39;;;;;;;1.57;1.10;;;10.50;98.20;;;;;;6109302;23;20450;-81
2023/12/28 03:25:06;;;;;;;1.60;1.10;;;10.50;98.20;;;;;;6123891;23;20422;-81
2023/12/28 03:27:33;;;;;;;1.60;1.10;;;10.50;98.20;;;;;;6108228;23;20492;-81
2023/12/28 03:30:00;;;;;;;1.60;1.10;;;10.50;98.20;;;;;;6124300;23;20485;-81
2023/12/28 03:32:29;;;;;;;1.60;1.10;;;10.50;98.20;;;;;;6107308;23;20844;-80
2023/12/28 03:34:55;;;;;;;1.60;1.10;;;10.50;98.20;;;;;;6123420;23;20489;-81
2023/12/28 03:37:22;;;;;;;1.60;1.10;;;10.60;98.20;;;;;;6110631;23;21002;-81
2023/12/28 03:39:49;;;;;;;1.60;1.17;;;10.60;98.20;;;;;;6123644;23;20422;-80
2023/12/28 03:42:16;;;;;;;1.90;1.67;;;10.60;98.20;;;;;;6108345;23;20449;-80
2023/12/28 03:44:43;;;;;;;1.60;1.10;;;10.60;98.20;;;;;;6122548;23;20573;-83
2023/12/28 03:47:09;;;;;;;1.60;1.17;;;10.50;98.20;;;;;;6110972;23;20958;-80
2023/12/28 03:49:38;;;;;;;1.60;1.10;;;10.50;98.20;;;;;;6124284;23;20422;-81
2023/12/28 03:52:05;;;;;;;1.53;1.10;;;10.50;98.20;;;;;;6107483;23;20536;-81
2023/12/28 03:54:35;;;;;;;1.60;1.10;;;10.50;98.20;;;;;;6131396;23;20505;-82
2023/12/28 03:57:01;;;;;;;2.07;1.87;;;10.50;98.20;;;;;;6108612;23;20453;-81
2023/12/28 03:59:28;;;;;;;1.60;1.20;;;10.50;98.20;;;;;;6132558;23;20432;-81
2023/12/28 04:01:55;;;;;;;1.60;1.10;;;10.40;98.20;;;;;;6108450;23;21073;-81
2023/12/28 04:04:22;;;;;;;1.57;1.10;;;10.40;98.20;;;;;;6123228;23;20538;-81
2023/12/28 04:06:50;;;;;;;1.60;1.10;;;10.40;98.20;;;;;;6109062;23;20454;-82
2023/12/28 04:09:17;;;;;;;1.57;1.10;;;10.30;98.20;;;;;;6123658;23;20426;-81
2023/12/28 04:11:44;;;;;;;1.60;1.20;;;10.30;98.20;;;;;;6109081;23;20494;-82
2023/12/28 04:14:11;;;;;;;1.60;1.20;;;10.30;98.20;;;;;;6131725;23;20428;-82
2023/12/28 04:16:37;;;;;;;1.50;1.03;;;10.30;98.20;;;;;;6107754;23;21148;-82
2023/12/28 04:19:04;;;;;;;1.60;1.10;;;10.30;98.20;;;;;;6124301;23;20508;-83
2023/12/28 04:21:31;;;;;;;1.60;1.20;;;10.30;98.20;;;;;;6108848;23;20513;-81
2023/12/28 04:23:59;;;;;;;1.60;1.20;;;10.30;98.20;;;;;;6124393;23;20460;-81
2023/12/28 04:26:26;;;;;;;1.60;1.10;;;10.20;98.20;;;;;;6108558;23;20993;-82
2023/12/28 04:28:53;;;;;;;1.60;1.10;;;10.20;98.20;;;;;;6123426;23;20428;-82
2023/12/28 04:31:19;;;;;;;1.60;1.10;;;10.20;98.20;;;;;;6116075;23;20465;-82
2023/12/28 04:33:54;;;;;;;1.60;1.10;;;10.10;98.20;;;;;;6132963;23;20421;-82
2023/12/28 04:36:21;;;;;;;1.60;1.10;;;10.10;98.20;;;;;;6114416;23;20507;-81
2023/12/28 04:38:48;;;;;;;1.60;1.20;;;10.10;98.20;;;;;;6122776;23;20426;-81
2023/12/28 04:41:16;;;;;;;1.60;1.20;;;10.10;98.20;;;;;;6109815;23;20837;-83
2023/12/28 04:43:42;;;;;;;1.60;1.10;;;10.10;98.20;;;;;;6121596;23;20734;-80
2023/12/28 04:46:09;;;;;;;1.60;1.17;;;10.10;98.20;;;;;;6108670;23;20449;-81
2023/12/28 04:48:36;;;;;;;1.60;1.10;;;10.10;98.20;;;;;;6121860;23;20934;-81
2023/12/28 04:51:03;;;;;;;1.60;1.10;;;10.00;98.20;;;;;;6114643;23;20832;-82
2023/12/28 04:53:30;;;;;;;1.60;1.20;;;10.00;98.20;;;;;;6122244;23;20922;-82
2023/12/28 04:55:57;;;;;;;1.60;1.27;;;10.00;98.20;;;;;;6109817;23;20456;-81
2023/12/28 04:58:25;;;;;;;1.60;1.10;;;10.00;98.20;;;;;;6123486;23;20424;-82
2023/12/28 05:00:52;;;;;;;1.60;1.10;;;10.00;98.20;;;;;;6109499;23;20505;-81
2023/12/28 05:03:19;;;;;;;1.60;1.10;;;10.00;98.20;;;;;;6124966;23;20414;-81
2023/12/28 05:05:46;;;;;;;1.60;1.10;;;10.00;98.20;;;;;;6133486;23;20461;-83
2023/12/28 05:08:13;;;;;;;1.60;1.10;;;10.00;98.20;;;;;;6083121;23;20776;-83
2023/12/28 05:10:40;;;;;;;2.73;2.23;;;10.00;98.20;;;;;;6131848;23;20496;-83
2023/12/28 05:13:06;;;;;;;1.60;1.10;;;10.00;98.20;;;;;;6106665;23;20521;-83
2023/12/28 05:15:35;;;;;;;1.57;1.10;;;10.00;98.20;;;;;;6122824;23;20460;-83
2023/12/28 05:18:03;;;;;;;1.60;1.10;;;10.00;98.20;;;;;;6108704;23;20449;-83
2023/12/28 05:20:30;;;;;;;1.60;1.10;;;10.00;98.20;;;;;;6133433;23;20501;-83
2023/12/28 05:22:57;;;;;;;1.60;1.10;;;10.00;98.20;;;;;;6107932;23;20449;-83
2023/12/28 05:25:24;;;;;;;1.60;1.10;;;9.90;98.20;;;;;;6122741;23;20966;-83
2023/12/28 05:27:51;;;;;;;1.53;1.10;;;10.00;98.20;;;;;;6108376;23;20533;-83
2023/12/28 05:30:25;;;;;;;1.83;1.73;;;10.00;98.20;;;;;;6125143;23;20422;-83
2023/12/28 05:32:53;;;;;;;1.57;1.13;;;10.00;98.20;;;;;;6110678;23;20453;-83
2023/12/28 05:35:26;;;;;;;1.60;1.07;;;10.00;98.20;;;;;;6133364;23;20445;-83
2023/12/28 05:37:53;;;;;;;1.60;1.10;;;10.00;98.20;;;;;;6108279;23;21106;-83
2023/12/28 05:40:20;;;;;;;1.60;1.20;;;10.00;98.20;;;;;;6133640;23;20418;-83
2023/12/28 05:42:50;;;;;;;1.60;1.10;;;10.00;98.20;;;;;;6109703;23;20460;-83
2023/12/28 05:45:31;;;;;;;1.60;1.10;;;10.00;98.20;;;;;;6135433;23;20797;-83
2023/12/28 05:47:59;;;;;;;1.60;1.10;;;10.00;98.20;;;;;;6111730;23;20504;-82
2023/12/28 05:50:32;;;;;;;1.60;1.10;;;10.00;98.20;;;;;;6135822;23;20708;-84
2023/12/28 05:52:59;;;;;;;1.60;1.17;;;10.00;98.20;;;;;;6110922;23;20446;-83
2023/12/28 05:55:28;;;;;;;1.60;1.10;;;10.00;98.20;;;;;;6135565;23;20475;-83
2023/12/28 05:57:55;;;;;;;1.60;1.20;;;10.00;98.20;;;;;;6111415;23;20449;-83
2023/12/28 06:00:25;;;;;;;1.60;1.10;;;10.00;98.20;;;;;;6124209;23;20946;-83
2023/12/28 06:02:52;;;;;;;1.60;1.10;;;10.00;98.20;;;;;;6110356;23;20655;-83
2023/12/28 06:05:23;;;;;;;1.57;1.10;;;10.00;98.20;;;;;;6135791;23;20511;-82
2023/12/28 06:07:49;;;;;;;1.60;1.10;;;10.00;98.20;;;;;;6111439;23;20449;-82
2023/12/28 06:10:16;;;;;;;1.60;1.17;;;10.00;98.20;;;;;;6135121;23;20421;-82
2023/12/28 06:12:43;;;;;;;1.60;1.00;;;10.00;98.20;;;;;;6110506;23;20967;-83
2023/12/28 06:15:11;;;;;;;1.60;1.10;;;10.00;98.20;;;;;;6135127;23;20421;-82
2023/12/28 06:17:37;;;;;;;1.60;1.20;;;10.00;98.20;;;;;;6110240;23;20454;-83
2023/12/28 06:20:05;;;;;;;1.60;1.10;;;9.90;98.20;;;;;;6125209;23;20421;-82
2023/12/28 06:22:33;;;;;;;1.60;1.10;;;9.90;98.20;;;;;;6111525;23;20516;-83
2023/12/28 06:25:00;;;;;;;1.60;1.10;;;9.90;98.20;;;;;;6124217;23;20505;-82
2023/12/28 06:27:29;;;;;;;1.60;1.10;;;9.90;98.20;;;;;;6110692;23;20482;-83
2023/12/28 06:29:58;;;;;;;1.57;1.10;;;9.90;98.20;;;;;;6135724;23;20430;-81
2023/12/28 06:32:25;;;;;;;1.60;1.10;;;9.90;98.20;;;;;;6109196;23;20552;-83
2023/12/28 06:34:57;;;;;;;1.60;1.20;;;10.00;98.20;;;;;;6135537;23;20425;-82
2023/12/28 06:37:26;;;;;;;1.60;1.10;;;10.00;98.20;;;;;;6113246;23;20450;-82
2023/12/28 06:39:55;;;;;;;1.60;1.13;;;10.10;98.20;;;;;;6133991;23;20809;-82
2023/12/28 06:42:25;;;;;;;1.60;1.10;;;10.10;98.20;;;;;;6113686;23;20524;-82
2023/12/28 06:44:56;;;;;;;1.60;1.10;;;10.10;98.20;;;;;;6136172;23;20600;-82
2023/12/28 06:47:23;;;;;;;1.60;1.10;;;10.20;98.20;;;;;;6114232;23;20454;-80
2023/12/28 06:49:52;;;;;;;1.60;1.20;;;10.20;98.20;;;;;;6135573;23;20910;-81
2023/12/28 06:52:19;;;;;;;1.60;1.10;;;10.20;98.20;;;;;;6108588;23;20461;-83
2023/12/28 06:54:49;;;;;;;1.57;1.10;;;10.30;98.20;;;;;;6133940;23;20422;-81
2023/12/28 06:57:18;;;;;;;1.60;1.20;;;10.30;98.20;;;;;;6112885;23;20474;-81
2023/12/28 06:59:44;;;;;;;1.57;1.10;;;10.30;98.20;;;;;;6134309;23;20417;-82
2023/12/28 07:02:11;;;;;;;1.60;1.20;;;10.30;98.20;;;;;;6109205;23;20864;-82
2023/12/28 07:04:38;;;;;;;1.60;1.10;;;10.30;98.20;;;;;;6124021;23;20418;-81
2023/12/28 07:07:05;;;;;;;1.60;1.10;;;10.30;98.20;;;;;;6109266;23;20553;-81
2023/12/28 07:09:34;;;;;;;1.60;1.10;;;10.30;98.20;;;;;;6134401;23;20449;-81
2023/12/28 07:12:07;;;;;;;1.60;1.10;;;10.30;98.20;;;;;;6114105;23;20509;-81
2023/12/28 07:14:36;;;;;;;1.60;1.10;;;10.30;98.20;;;;;;6124990;23;20494;-82
2023/12/28 07:17:06;;;;;;;1.60;1.10;;;10.20;98.20;;;;;;6108022;23;20449;-82
2023/12/28 07:19:35;;;;;;;1.60;1.10;;;10.20;98.20;;;;;;6124828;23;20430;-81
2023/12/28 07:22:02;;;;;;;1.57;1.10;;;10.20;98.20;;;;;;6108180;23;20481;-81
2023/12/28 07:24:32;;;;;;;1.60;1.17;;;10.20;98.20;;;;;;6134334;23;20414;-81
2023/12/28 07:26:58;;;;;;;1.60;1.20;;;10.20;98.20;;;;;;6113634;23;20488;-81
2023/12/28 07:29:27;;;;;;;1.57;1.10;;;10.20;98.20;;;;;;6124542;23;20509;-81
2023/12/28 07:31:56;;;;;;;1.60;1.10;;;10.20;98.20;;;;;;6108965;23;20456;-81
2023/12/28 07:34:25;;;;;;;1.70;1.43;;;10.20;98.20;;;;;;6133054;23;20501;-81
2023/12/28 07:36:53;;;;;;;1.60;1.20;;;10.20;98.20;;;;;;6111247;23;20537;-81
2023/12/28 07:39:20;;;;;;;1.53;1.10;;;10.20;98.20;;;;;;6134548;23;20433;-81
2023/12/28 07:41:47;;;;;;;1.57;1.10;;;10.20;98.20;;;;;;6114759;23;20851;-81
2023/12/28 07:44:17;;;;;;;1.60;1.20;;;10.20;98.20;;;;;;6124739;23;20872;-82
2023/12/28 07:46:58;;;;;;;1.60;1.10;;;10.20;98.20;;;;;;6118135;23;20545;-81
2023/12/28 07:49:31;;;;;;;1.50;1.10;;;10.20;98.20;;;;;;6125306;23;20457;-81
2023/12/28 07:51:58;;;;;;;1.57;1.10;;;10.20;98.20;;;;;;6110154;23;20477;-81
2023/12/28 07:54:25;;;;;;;1.53;1.10;;;10.20;98.20;;;;;;6134581;23;20430;-82
2023/12/28 07:57:07;;;;;;;1.50;1.10;;;10.20;98.20;;;;;;6108642;23;20537;-82
2023/12/28 07:59:34;;;;;;;1.60;1.20;;;10.20;98.20;;;;;;6133741;23;20429;-82
2023/12/28 08:02:08;;;;;;;1.53;1.10;;;10.20;98.20;;;;;;6111254;23;20525;-83
2023/12/28 08:04:36;;;;;;;1.57;1.10;;;10.20;98.20;;;;;;6134578;23;20457;-82
2023/12/28 08:07:06;;;;;;;1.60;1.20;;;10.20;98.20;;;;;;6108967;23;20446;-82
2023/12/28 08:09:35;;;;;;;1.57;1.10;;;10.20;98.20;;;;;;6134298;23;20898;-84
2023/12/28 08:12:02;;;;;;;1.60;1.10;;;10.20;98.20;;;;;;6113239;23;20457;-84
2023/12/28 08:14:29;;;;;;;1.60;1.10;;;10.20;98.20;;;;;;6123189;23;20425;-84
2023/12/28 08:17:01;;;;;;;1.57;1.10;;;10.20;98.20;;;;;;6111566;23;20457;-84
2023/12/28 08:19:30;;;;;;;1.60;1.10;;;10.30;98.20;;;;;;6134703;23;20429;-84
2023/12/28 08:21:58;;;;;;;1.57;1.10;;;10.20;98.20;;;;;;6115113;23;20472;-84
2023/12/28 08:24:46;;;;;;;1.60;1.20;;;10.20;98.20;;;;;;6124804;23;20418;-82
2023/12/28 08:27:22;;;;;;;1.50;1.10;;;10.20;98.20;;;;;;6108880;23;20877;-83
2023/12/28 08:30:11;;;;;;;1.60;1.30;;;10.20;98.20;;;;;;6126424;23;20805;-84
2023/12/28 08:32:37;;;;;;;1.60;1.10;;;10.20;98.20;;;;;;6111037;23;20541;-80
2023/12/28 08:35:05;;;;;;;1.57;1.10;;;10.20;98.20;;;;;;6133797;23;20817;-83
2023/12/28 08:37:35;;;;;;;1.53;1.10;;;10.20;98.20;;;;;;6109091;23;20460;-85
2023/12/28 08:40:03;;;;;;;1.60;1.10;;;10.20;98.20;;;;;;6125130;23;21048;-78
2023/12/28 08:42:33;;;;;;;1.50;1.10;;;10.20;98.20;;;;;;6099597;23;20454;-78
2023/12/28 08:45:01;;;;;;;1.60;1.20;;;10.20;98.20;;;;;;6115817;23;20414;-77
2023/12/28 08:47:28;;;;;;;1.57;1.13;;;10.20;98.20;;;;;;6103566;23;20745;-77
2023/12/28 08:49:55;;;;;;;1.60;1.20;;;10.20;98.20;;;;;;6123866;23;20448;-79
2023/12/28 08:52:21;;;;;;;1.60;1.20;;;10.30;98.20;;;;;;6107381;23;20457;-79
2023/12/28 08:54:50;;;;;;;1.57;1.10;;;10.30;98.20;;;;;;6121634;23;20422;-79
2023/12/28 08:57:16;;;;;;;1.57;1.10;;;10.30;98.20;;;;;;6106931;23;20446;-80
2023/12/28 08:59:43;;;;;;;1.57;1.10;;;10.30;98.20;;;;;;6120857;23;20430;-78
2023/12/28 09:02:10;;;;;;;1.60;1.10;;;10.30;98.20;;;;;;6110821;23;20477;-78
2023/12/28 09:04:38;;;;;;;1.57;1.10;;;10.30;98.20;;;;;;6123968;23;20488;-80
2023/12/28 09:07:05;;;;;;;1.60;1.10;;;10.40;98.20;;;;;;6112541;23;20517;-79
2023/12/28 09:09:32;;;;;;;1.60;1.10;;;10.40;98.20;;;;;;6123596;23;20513;-79
2023/12/28 09:12:00;;;;;;;1.60;1.10;;;10.50;98.20;;;;;;6108548;23;20554;-79
2023/12/28 09:14:27;;;;;;;1.60;1.10;;;10.50;98.20;;;;;;6122375;23;20418;-79
2023/12/28 09:16:53;;;;;;;1.50;1.10;;;10.50;98.20;;;;;;6107345;23;21000;-79
2023/12/28 09:19:20;;;;;;;1.57;1.10;;;10.50;98.20;;;;;;6132522;23;20424;-79
2023/12/28 09:21:47;;;;;;;1.57;1.10;;;10.60;98.20;;;;;;6103736;23;20453;-78
2023/12/28 09:24:14;;;;;;;1.60;1.20;;;10.60;98.20;;;;;;6128572;23;20414;-78
2023/12/28 09:26:42;;;;;;;1.60;1.10;;;10.60;98.20;;;;;;6104535;23;20858;-78
2023/12/28 09:29:10;;;;;;;1.60;1.20;;;10.60;98.20;;;;;;6119364;23;20715;-78
2023/12/28 09:31:38;;;;;;;1.60;1.10;;;10.60;98.20;;;;;;6105467;23;20909;-79
2023/12/28 09:37:41;;;;;;;1.60;1.10;;;10.80;98.20;;;;;;5927650;23;20603;-78
2023/12/28 09:40:10;;;;;;;1.60;1.10;;;10.90;98.20;;;;;;6121172;23;20449;-79
2023/12/28 09:42:46;;;;;;;1.60;1.10;;;10.90;98.20;;;;;;6104060;23;20528;-79
2023/12/28 09:45:14;;;;;;;1.60;1.10;;;11.00;98.20;;;;;;6119158;23;20683;-79
2023/12/28 09:47:42;;;;;;;1.60;1.10;;;11.00;98.20;;;;;;6104744;23;20529;-78
2023/12/28 09:50:10;;;;;;;1.60;1.10;;;11.10;98.20;;;;;;6120958;23;20445;-79
2023/12/28 09:52:36;;;;;;;1.57;1.00;;;11.10;98.20;;;;;;6104105;23;20753;-78
2023/12/28 09:55:04;;;;;;;1.60;1.00;;;11.10;98.20;;;;;;6120255;23;20421;-77
2023/12/28 09:57:31;;;;;;;1.60;1.30;;;11.20;98.20;;;;;;6104404;23;20449;-77
2023/12/28 09:59:58;;;;;;;2.03;1.83;;;11.20;98.20;;;;;;6119461;23;20441;-78
2023/12/28 10:02:26;;;;;;;1.60;1.20;;;11.30;98.20;;;;;;6104582;23;20500;-78
2023/12/28 10:04:53;;;;;;;1.60;1.10;;;11.30;98.20;;;;;;6119410;23;20819;-78
2023/12/28 10:07:21;;;;;;;1.60;1.10;;;11.40;98.20;;;;;;6104295;23;20491;-77
2023/12/28 10:09:48;;;;;;;1.60;1.10;;;11.40;98.20;;;;;;6127574;23;20499;-78
2023/12/28 10:12:16;;;;;;;1.60;1.07;;;11.40;98.20;;;;;;6104275;23;20571;-79
2023/12/28 10:14:43;;;;;;;1.60;1.10;;;11.40;98.20;;;;;;6118485;23;20421;-79
2023/12/28 10:17:10;;;;;;;2.47;2.27;;;11.50;98.20;;;;;;6104545;23;21189;-78
2023/12/28 10:19:39;;;;;;;1.57;1.10;;;11.50;98.20;;;;;;6118333;23;20425;-79
2023/12/28 10:22:06;;;;;;;1.60;1.03;;;11.50;98.20;;;;;;6119599;23;20418;-78
2023/12/28 10:24:33;;;;;;;1.57;1.10;;;11.50;98.20;;;;;;6120388;23;20757;-79
2023/12/28 10:27:00;;;;;;;1.57;1.00;;;11.50;98.20;;;;;;6118806;23;20677;-79
2023/12/28 10:29:27;;;;;;;1.60;1.03;;;11.60;98.20;;;;;;6119914;23;21030;-78
2023/12/28 10:31:54;;;;;;;1.60;1.00;;;11.60;98.20;;;;;;6119531;23;20441;-79
2023/12/28 10:34:21;;;;;;;1.57;1.00;;;11.60;98.20;;;;;;6119256;23;20426;-78
2023/12/28 10:36:50;;;;;;;1.57;1.00;;;11.70;98.20;;;;;;6116616;23;20425;-78
2023/12/28 10:39:21;;;;;;;1.60;1.00;;;11.70;98.20;;;;;;6125300;23;20650;-79
2023/12/28 10:41:52;;;;;;;1.60;1.00;;;11.80;98.20;;;;;;6117976;23;20850;-79
2023/12/28 10:44:20;;;;;;;1.60;1.20;;;11.90;98.20;;;;;;6120925;23;20502;-79
2023/12/28 10:46:52;;;;;;;1.60;1.03;;;12.00;98.20;;;;;;6120673;23;20422;-78
2023/12/28 10:49:22;;;;;;;1.60;1.10;;;12.10;98.20;;;;;;6129540;23;20658;-78
2023/12/28 10:51:53;;;;;;;1.60;1.10;;;12.20;98.20;;;;;;6119581;23;20441;-78
2023/12/28 10:54:29;;;;;;;1.60;1.10;;;12.30;98.20;;;;;;6119191;23;20489;-77
2023/12/28 10:57:03;;;;;;;1.60;1.00;;;12.40;98.20;;;;;;6103846;23;20453;-78
2023/12/28 10:59:44;;;;;;;1.60;1.10;;;12.50;98.20;;;;;;6119563;23;20755;-78
2023/12/28 11:02:17;;;;;;;1.60;1.03;;;12.50;98.20;;;;;;6103650;23;20453;-78
2023/12/28 11:04:48;;;;;;;1.60;1.00;;;12.60;98.20;;;;;;6118412;23;20410;-78
2023/12/28 11:07:19;;;;;;;1.60;1.10;;;12.60;98.20;;;;;;6103777;23;20824;-77
2023/12/28 11:09:46;;;;;;;1.60;1.00;;;12.70;98.20;;;;;;6119093;23;20460;-78
2023/12/28 11:12:13;;;;;;;1.60;1.00;;;12.70;98.20;;;;;;6104207;23;20442;-79
2023/12/28 11:14:42;;;;;;;1.60;1.10;;;12.70;98.20;;;;;;6119889;23;20922;-78
2023/12/28 11:17:11;;;;;;;1.57;1.00;;;12.70;98.20;;;;;;6103083;23;20863;-78
2023/12/28 11:19:38;;;;;;;1.60;1.10;;;12.70;98.20;;;;;;6119583;23;20488;-78
2023/12/28 11:22:06;;;;;;;1.70;1.40;;;12.70;98.20;;;;;;6105409;23;20741;-78
2023/12/28 11:24:36;;;;;;;1.60;1.00;;;12.70;98.20;;;;;;6129252;23;20496;-78
2023/12/28 11:27:04;;;;;;;1.60;1.00;;;12.70;98.20;;;;;;6106874;23;20453;-79
2023/12/28 11:29:32;;;;;;;1.60;1.00;;;12.70;98.20;;;;;;6131004;23;20718;-79
2023/12/28 11:32:00;;;;;;;1.60;1.00;;;12.80;98.20;;;;;;6110583;23;20484;-78
2023/12/28 11:34:29;;;;;;;1.60;1.07;;;12.70;98.20;;;;;;6133989;23;20428;-78
2023/12/28 11:36:58;;;;;;;1.60;1.10;;;12.80;98.20;;;;;;6107068;23;20453;-79
2023/12/28 11:39:33;;;;;;;1.60;1.00;;;12.80;98.20;;;;;;6131748;23;20795;-79
2023/12/28 11:42:06;;;;;;;1.60;1.10;;;12.80;98.20;;;;;;6107058;23;20453;-79
2023/12/28 11:44:38;;;;;;;1.60;1.00;;;12.90;98.20;;;;;;6122516;23;20986;-78
2023/12/28 11:47:13;;;;;;;1.60;1.00;;;12.90;98.20;;;;;;6111771;23;20461;-78
2023/12/28 11:49:41;;;;;;;1.60;1.00;;;12.90;98.20;;;;;;6133894;23;20682;-78
2023/12/28 11:52:10;;;;;;;1.60;1.00;;;12.90;98.20;;;;;;6113998;23;21044;-79
2023/12/28 11:54:38;;;;;;;1.60;1.00;;;13.00;98.20;;;;;;6130365;23;20695;-78
2023/12/28 11:57:08;;;;;;;1.60;1.00;;;13.10;98.20;;;;;;6117733;23;20461;-78
2023/12/28 11:59:35;;;;;;;1.60;1.00;;;13.10;98.20;;;;;;6133688;23;20421;-79
2023/12/28 12:02:07;;;;;;;1.60;1.10;;;13.10;98.20;;;;;;6109754;23;20477;-79
2023/12/28 12:04:36;;;;;;;1.60;1.00;;;13.20;98.20;;;;;;6135740;23;20937;-78
2023/12/28 12:07:04;;;;;;;1.60;1.00;;;13.20;98.20;;;;;;6116026;23;20485;-80
2023/12/28 12:09:34;;;;;;;1.60;1.00;;;13.20;98.20;;;;;;6123478;23;20422;-78
2023/12/28 12:12:02;;;;;;;1.57;1.00;;;13.20;98.20;;;;;;6112620;23;20483;-78
2023/12/28 12:14:31;;;;;;;1.60;1.00;;;13.20;98.20;;;;;;6124215;23;20480;-79
2023/12/28 12:16:59;;;;;;;1.57;1.00;;;13.20;98.20;;;;;;6113544;23;20469;-79
2023/12/28 12:19:26;;;;;;;1.60;1.00;;;13.20;98.20;;;;;;6133159;23;20437;-79
2023/12/28 12:21:53;;;;;;;1.60;1.00;;;13.20;98.20;;;;;;6108460;23;20453;-79
2023/12/28 12:24:21;;;;;;;1.60;1.00;;;13.30;98.20;;;;;;6121923;23;20898;-79
2023/12/28 12:26:48;;;;;;;1.57;1.00;;;13.30;98.20;;;;;;6107510;23;20449;-79
2023/12/28 12:29:16;;;;;;;1.60;1.00;;;13.30;98.20;;;;;;6123707;23;20418;-79
2023/12/28 12:31:47;;;;;;;1.60;1.10;;;13.30;98.20;;;;;;6108494;23;20465;-79
2023/12/28 12:34:17;;;;;;;1.60;1.00;;;13.30;98.20;;;;;;6125131;23;20739;-78
2023/12/28 12:36:45;;;;;;;1.60;1.00;;;13.40;98.20;;;;;;6112778;23;20854;-78
2023/12/28 12:39:12;;;;;;;2.83;2.53;;;13.40;98.20;;;;;;6132243;23;20446;-78
2023/12/28 12:41:39;;;;;;;1.57;1.00;;;13.40;98.20;;;;;;6122677;23;20537;-79
2023/12/28 12:44:06;;;;;;;1.60;1.10;;;13.40;98.20;;;;;;6130605;23;20681;-77
2023/12/28 12:46:33;;;;;;;1.60;1.10;;;13.40;98.20;;;;;;6105122;23;20970;-77
2023/12/28 12:49:03;;;;;;;1.60;1.00;;;13.40;98.20;;;;;;6118688;23;20642;-78
2023/12/28 12:51:31;;;;;;;1.60;1.00;;;13.40;98.20;;;;;;6103059;23;20537;-78
2023/12/28 12:53:58;;;;;;;1.60;1.20;;;13.30;98.20;;;;;;6117624;23;20906;-77
2023/12/28 12:56:28;;;;;;;1.60;1.10;;;13.30;98.20;;;;;;6102289;23;20540;-78